sensor_id;sensor_type;location;lat;lon;timestamp;P1;durP1;ratioP1;P2;durP2;ratioP2
32321;SDS011;61553;48.994;8.940;2023-09-18T00:00:21;7.50;;;3.83;;
32321;SDS011;61553;48.994;8.940;2023-09-18T00:02:47;6.10;;;3.55;;
32321;SDS011;61553;48.994;8.940;2023-09-18T00:05:13;5.90;;;3.88;;
32321;SDS011;61553;48.994;8.940;2023-09-18T00:07:41;6.95;;;4.07;;
32321;SDS011;61553;48.994;8.940;2023-09-18T00:10:08;8.38;;;3.95;;
32321;SDS011;61553;48.994;8.940;2023-09-18T00:12:37;6.30;;;4.05;;
32321;SDS011;61553;48.994;8.940;2023-09-18T00:15:04;7.53;;;4.18;;
32321;SDS011;61553;48.994;8.940;2023-09-18T00:17:30;7.18;;;3.95;;
32321;SDS011;61553;48.994;8.940;2023-09-18T00:19:56;8.23;;;4.15;;
32321;SDS011;61553;48.994;8.940;2023-09-18T00:22:22;7.20;;;3.85;;
32321;SDS011;61553;48.994;8.940;2023-09-18T00:24:49;9.52;;;3.88;;
32321;SDS011;61553;48.994;8.940;2023-09-18T00:27:15;6.57;;;4.15;;
32321;SDS011;61553;48.994;8.940;2023-09-18T00:29:41;5.85;;;3.35;;
32321;SDS011;61553;48.994;8.940;2023-09-18T00:32:07;7.93;;;3.85;;
32321;SDS011;61553;48.994;8.940;2023-09-18T00:34:33;7.00;;;3.92;;
32321;SDS011;61553;48.994;8.940;2023-09-18T00:36:58;10.82;;;4.20;;
32321;SDS011;61553;48.994;8.940;2023-09-18T00:39:25;8.80;;;3.80;;
32321;SDS011;61553;48.994;8.940;2023-09-18T00:41:51;6.30;;;3.70;;
32321;SDS011;61553;48.994;8.940;2023-09-18T00:44:19;8.70;;;4.03;;
32321;SDS011;61553;48.994;8.940;2023-09-18T00:46:46;5.80;;;3.63;;
32321;SDS011;61553;48.994;8.940;2023-09-18T00:49:13;9.63;;;3.97;;
32321;SDS011;61553;48.994;8.940;2023-09-18T00:51:40;8.00;;;3.83;;
32321;SDS011;61553;48.994;8.940;2023-09-18T00:54:06;8.00;;;4.25;;
32321;SDS011;61553;48.994;8.940;2023-09-18T00:56:32;7.65;;;3.80;;
32321;SDS011;61553;48.994;8.940;2023-09-18T00:58:59;6.57;;;3.75;;
32321;SDS011;61553;48.994;8.940;2023-09-18T01:01:26;5.90;;;3.53;;
32321;SDS011;61553;48.994;8.940;2023-09-18T01:03:52;7.93;;;3.67;;
32321;SDS011;61553;48.994;8.940;2023-09-18T01:06:18;5.93;;;3.65;;
32321;SDS011;61553;48.994;8.940;2023-09-18T01:08:45;5.68;;;3.90;;
32321;SDS011;61553;48.994;8.940;2023-09-18T01:13:56;11.15;;;4.05;;
32321;SDS011;61553;48.994;8.940;2023-09-18T01:16:32;7.40;;;4.05;;
32321;SDS011;61553;48.994;8.940;2023-09-18T01:19:04;7.93;;;4.28;;
32321;SDS011;61553;48.994;8.940;2023-09-18T01:21:30;8.57;;;4.10;;
32321;SDS011;61553;48.994;8.940;2023-09-18T01:23:55;7.20;;;3.95;;
32321;SDS011;61553;48.994;8.940;2023-09-18T01:26:21;9.07;;;3.80;;
32321;SDS011;61553;48.994;8.940;2023-09-18T01:28:47;5.57;;;3.70;;
32321;SDS011;61553;48.994;8.940;2023-09-18T01:31:12;8.35;;;3.92;;
32321;SDS011;61553;48.994;8.940;2023-09-18T01:33:38;8.48;;;3.88;;
32321;SDS011;61553;48.994;8.940;2023-09-18T01:36:05;7.43;;;3.60;;
32321;SDS011;61553;48.994;8.940;2023-09-18T01:38:32;9.93;;;4.10;;
32321;SDS011;61553;48.994;8.940;2023-09-18T01:40:59;7.07;;;3.60;;
32321;SDS011;61553;48.994;8.940;2023-09-18T01:43:25;10.32;;;4.18;;
32321;SDS011;61553;48.994;8.940;2023-09-18T01:45:51;5.20;;;3.28;;
32321;SDS011;61553;48.994;8.940;2023-09-18T01:48:18;7.22;;;3.65;;
32321;SDS011;61553;48.994;8.940;2023-09-18T01:50:43;5.90;;;3.40;;
32321;SDS011;61553;48.994;8.940;2023-09-18T01:53:09;7.88;;;3.55;;
32321;SDS011;61553;48.994;8.940;2023-09-18T01:55:35;5.47;;;3.42;;
32321;SDS011;61553;48.994;8.940;2023-09-18T01:58:00;5.65;;;3.20;;
32321;SDS011;61553;48.994;8.940;2023-09-18T02:00:27;7.20;;;3.97;;
32321;SDS011;61553;48.994;8.940;2023-09-18T02:02:53;7.07;;;3.85;;
32321;SDS011;61553;48.994;8.940;2023-09-18T02:05:19;7.43;;;3.25;;
32321;SDS011;61553;48.994;8.940;2023-09-18T02:07:44;5.05;;;3.00;;
32321;SDS011;61553;48.994;8.940;2023-09-18T02:10:10;6.75;;;3.20;;
32321;SDS011;61553;48.994;8.940;2023-09-18T02:12:37;4.22;;;2.78;;
32321;SDS011;61553;48.994;8.940;2023-09-18T02:15:04;6.18;;;2.95;;
32321;SDS011;61553;48.994;8.940;2023-09-18T02:17:31;8.77;;;3.60;;
32321;SDS011;61553;48.994;8.940;2023-09-18T02:19:57;6.00;;;3.60;;
32321;SDS011;61553;48.994;8.940;2023-09-18T02:22:23;6.28;;;3.50;;
32321;SDS011;61553;48.994;8.940;2023-09-18T02:24:48;7.53;;;3.78;;
32321;SDS011;61553;48.994;8.940;2023-09-18T02:27:15;6.07;;;3.40;;
32321;SDS011;61553;48.994;8.940;2023-09-18T02:29:43;6.03;;;3.72;;
32321;SDS011;61553;48.994;8.940;2023-09-18T02:32:09;12.38;;;4.43;;
32321;SDS011;61553;48.994;8.940;2023-09-18T02:34:35;7.82;;;3.67;;
32321;SDS011;61553;48.994;8.940;2023-09-18T02:37:00;5.30;;;3.47;;
32321;SDS011;61553;48.994;8.940;2023-09-18T02:39:26;7.03;;;3.65;;
32321;SDS011;61553;48.994;8.940;2023-09-18T02:41:52;5.82;;;3.70;;
32321;SDS011;61553;48.994;8.940;2023-09-18T02:44:17;6.53;;;3.70;;
32321;SDS011;61553;48.994;8.940;2023-09-18T02:46:43;6.40;;;4.07;;
32321;SDS011;61553;48.994;8.940;2023-09-18T02:49:08;6.70;;;3.80;;
32321;SDS011;61553;48.994;8.940;2023-09-18T02:51:34;5.88;;;3.60;;
32321;SDS011;61553;48.994;8.940;2023-09-18T02:53:59;9.10;;;4.03;;
32321;SDS011;61553;48.994;8.940;2023-09-18T02:56:25;7.82;;;3.50;;
32321;SDS011;61553;48.994;8.940;2023-09-18T02:58:51;6.55;;;3.70;;
32321;SDS011;61553;48.994;8.940;2023-09-18T03:01:16;5.85;;;3.65;;
32321;SDS011;61553;48.994;8.940;2023-09-18T03:03:42;9.75;;;3.95;;
32321;SDS011;61553;48.994;8.940;2023-09-18T03:06:08;7.55;;;3.92;;
32321;SDS011;61553;48.994;8.940;2023-09-18T03:08:33;6.10;;;3.80;;
32321;SDS011;61553;48.994;8.940;2023-09-18T03:11:00;6.40;;;3.47;;
32321;SDS011;61553;48.994;8.940;2023-09-18T03:13:28;7.57;;;3.70;;
32321;SDS011;61553;48.994;8.940;2023-09-18T03:15:55;8.18;;;3.85;;
32321;SDS011;61553;48.994;8.940;2023-09-18T03:18:23;6.50;;;3.70;;
32321;SDS011;61553;48.994;8.940;2023-09-18T03:20:49;7.88;;;4.45;;
32321;SDS011;61553;48.994;8.940;2023-09-18T03:23:14;7.53;;;4.03;;
32321;SDS011;61553;48.994;8.940;2023-09-18T03:25:40;7.88;;;4.00;;
32321;SDS011;61553;48.994;8.940;2023-09-18T03:28:06;11.30;;;3.95;;
32321;SDS011;61553;48.994;8.940;2023-09-18T03:30:31;6.47;;;3.58;;
32321;SDS011;61553;48.994;8.940;2023-09-18T03:32:57;6.55;;;3.45;;
32321;SDS011;61553;48.994;8.940;2023-09-18T03:35:22;7.15;;;3.50;;
32321;SDS011;61553;48.994;8.940;2023-09-18T03:37:49;7.50;;;3.92;;
32321;SDS011;61553;48.994;8.940;2023-09-18T03:40:17;9.60;;;4.55;;
32321;SDS011;61553;48.994;8.940;2023-09-18T03:42:44;6.85;;;3.85;;
32321;SDS011;61553;48.994;8.940;2023-09-18T03:45:10;5.25;;;3.50;;
32321;SDS011;61553;48.994;8.940;2023-09-18T03:47:36;6.55;;;3.50;;
32321;SDS011;61553;48.994;8.940;2023-09-18T03:50:04;7.55;;;3.47;;
32321;SDS011;61553;48.994;8.940;2023-09-18T03:52:33;13.57;;;3.67;;
32321;SDS011;61553;48.994;8.940;2023-09-18T03:54:59;12.05;;;3.38;;
32321;SDS011;61553;48.994;8.940;2023-09-18T03:57:25;7.53;;;3.13;;
32321;SDS011;61553;48.994;8.940;2023-09-18T03:59:51;15.57;;;3.90;;
32321;SDS011;61553;48.994;8.940;2023-09-18T04:02:16;12.70;;;3.67;;
32321;SDS011;61553;48.994;8.940;2023-09-18T04:04:42;8.93;;;4.15;;
32321;SDS011;61553;48.994;8.940;2023-09-18T04:07:08;12.02;;;3.42;;
32321;SDS011;61553;48.994;8.940;2023-09-18T04:09:34;15.02;;;3.53;;
32321;SDS011;61553;48.994;8.940;2023-09-18T04:12:03;13.45;;;3.65;;
32321;SDS011;61553;48.994;8.940;2023-09-18T04:14:33;12.77;;;3.75;;
32321;SDS011;61553;48.994;8.940;2023-09-18T04:16:59;15.18;;;4.13;;
32321;SDS011;61553;48.994;8.940;2023-09-18T04:19:27;11.57;;;4.00;;
32321;SDS011;61553;48.994;8.940;2023-09-18T04:21:53;12.13;;;3.72;;
32321;SDS011;61553;48.994;8.940;2023-09-18T04:24:19;15.30;;;2.88;;
32321;SDS011;61553;48.994;8.940;2023-09-18T04:26:45;13.15;;;4.05;;
32321;SDS011;61553;48.994;8.940;2023-09-18T04:29:10;11.93;;;3.50;;
32321;SDS011;61553;48.994;8.940;2023-09-18T04:31:36;13.75;;;2.95;;
32321;SDS011;61553;48.994;8.940;2023-09-18T04:34:03;11.95;;;2.95;;
32321;SDS011;61553;48.994;8.940;2023-09-18T04:36:29;9.57;;;3.00;;
32321;SDS011;61553;48.994;8.940;2023-09-18T04:38:54;10.75;;;3.38;;
32321;SDS011;61553;48.994;8.940;2023-09-18T04:41:20;12.32;;;3.00;;
32321;SDS011;61553;48.994;8.940;2023-09-18T04:43:46;8.85;;;3.65;;
32321;SDS011;61553;48.994;8.940;2023-09-18T04:46:12;11.50;;;3.00;;
32321;SDS011;61553;48.994;8.940;2023-09-18T04:48:37;10.55;;;3.10;;
32321;SDS011;61553;48.994;8.940;2023-09-18T04:51:03;15.48;;;2.58;;
32321;SDS011;61553;48.994;8.940;2023-09-18T04:53:29;7.13;;;2.90;;
32321;SDS011;61553;48.994;8.940;2023-09-18T04:55:56;11.85;;;3.63;;
32321;SDS011;61553;48.994;8.940;2023-09-18T04:58:22;12.65;;;3.70;;
32321;SDS011;61553;48.994;8.940;2023-09-18T05:00:54;11.75;;;2.60;;
32321;SDS011;61553;48.994;8.940;2023-09-18T05:03:24;11.68;;;3.35;;
32321;SDS011;61553;48.994;8.940;2023-09-18T05:05:51;10.85;;;3.20;;
32321;SDS011;61553;48.994;8.940;2023-09-18T05:08:17;9.02;;;3.00;;
32321;SDS011;61553;48.994;8.940;2023-09-18T05:10:43;12.68;;;3.17;;
32321;SDS011;61553;48.994;8.940;2023-09-18T05:13:09;13.63;;;4.03;;
32321;SDS011;61553;48.994;8.940;2023-09-18T05:15:36;12.95;;;3.55;;
32321;SDS011;61553;48.994;8.940;2023-09-18T05:18:02;12.63;;;3.25;;
32321;SDS011;61553;48.994;8.940;2023-09-18T05:20:29;13.38;;;4.18;;
32321;SDS011;61553;48.994;8.940;2023-09-18T05:22:56;10.25;;;4.95;;
32321;SDS011;61553;48.994;8.940;2023-09-18T05:25:23;18.60;;;6.50;;
32321;SDS011;61553;48.994;8.940;2023-09-18T05:27:50;14.05;;;4.45;;
32321;SDS011;61553;48.994;8.940;2023-09-18T05:30:23;12.18;;;3.67;;
32321;SDS011;61553;48.994;8.940;2023-09-18T05:32:57;14.30;;;4.70;;
32321;SDS011;61553;48.994;8.940;2023-09-18T05:35:33;11.15;;;3.90;;
32321;SDS011;61553;48.994;8.940;2023-09-18T05:38:01;9.07;;;3.50;;
32321;SDS011;61553;48.994;8.940;2023-09-18T05:40:28;15.77;;;3.83;;
32321;SDS011;61553;48.994;8.940;2023-09-18T05:42:54;11.57;;;3.63;;
32321;SDS011;61553;48.994;8.940;2023-09-18T05:45:21;10.93;;;3.92;;
32321;SDS011;61553;48.994;8.940;2023-09-18T05:47:48;11.05;;;3.90;;
32321;SDS011;61553;48.994;8.940;2023-09-18T05:50:14;8.75;;;3.63;;
32321;SDS011;61553;48.994;8.940;2023-09-18T05:52:42;15.07;;;3.97;;
32321;SDS011;61553;48.994;8.940;2023-09-18T05:55:08;15.88;;;3.90;;
32321;SDS011;61553;48.994;8.940;2023-09-18T05:57:35;17.15;;;3.65;;
32321;SDS011;61553;48.994;8.940;2023-09-18T06:00:01;13.70;;;3.30;;
32321;SDS011;61553;48.994;8.940;2023-09-18T06:02:27;11.88;;;3.80;;
32321;SDS011;61553;48.994;8.940;2023-09-18T06:04:56;12.20;;;3.63;;
32321;SDS011;61553;48.994;8.940;2023-09-18T06:07:25;12.55;;;3.83;;
32321;SDS011;61553;48.994;8.940;2023-09-18T06:09:51;9.93;;;3.30;;
32321;SDS011;61553;48.994;8.940;2023-09-18T06:12:17;13.13;;;4.05;;
32321;SDS011;61553;48.994;8.940;2023-09-18T06:14:43;12.82;;;3.65;;
32321;SDS011;61553;48.994;8.940;2023-09-18T06:17:10;11.90;;;3.90;;
32321;SDS011;61553;48.994;8.940;2023-09-18T06:19:35;11.27;;;3.40;;
32321;SDS011;61553;48.994;8.940;2023-09-18T06:22:01;10.80;;;3.70;;
32321;SDS011;61553;48.994;8.940;2023-09-18T06:24:27;11.18;;;3.60;;
32321;SDS011;61553;48.994;8.940;2023-09-18T06:26:53;9.38;;;3.65;;
32321;SDS011;61553;48.994;8.940;2023-09-18T06:29:18;14.38;;;3.63;;
32321;SDS011;61553;48.994;8.940;2023-09-18T06:31:44;13.27;;;3.67;;
32321;SDS011;61553;48.994;8.940;2023-09-18T06:34:11;13.15;;;4.00;;
32321;SDS011;61553;48.994;8.940;2023-09-18T06:36:36;11.48;;;3.28;;
32321;SDS011;61553;48.994;8.940;2023-09-18T06:39:02;7.65;;;2.90;;
32321;SDS011;61553;48.994;8.940;2023-09-18T06:41:28;9.10;;;3.28;;
32321;SDS011;61553;48.994;8.940;2023-09-18T06:43:53;10.18;;;3.40;;
32321;SDS011;61553;48.994;8.940;2023-09-18T06:46:19;8.25;;;3.20;;
32321;SDS011;61553;48.994;8.940;2023-09-18T06:48:45;9.48;;;2.78;;
32321;SDS011;61553;48.994;8.940;2023-09-18T06:51:14;12.88;;;3.40;;
32321;SDS011;61553;48.994;8.940;2023-09-18T06:53:40;10.10;;;2.75;;
32321;SDS011;61553;48.994;8.940;2023-09-18T06:56:05;12.90;;;2.95;;
32321;SDS011;61553;48.994;8.940;2023-09-18T06:58:31;10.23;;;3.10;;
32321;SDS011;61553;48.994;8.940;2023-09-18T07:00:57;9.73;;;2.30;;
32321;SDS011;61553;48.994;8.940;2023-09-18T07:03:23;8.80;;;2.63;;
32321;SDS011;61553;48.994;8.940;2023-09-18T07:05:48;9.63;;;2.80;;
32321;SDS011;61553;48.994;8.940;2023-09-18T07:08:14;13.07;;;3.30;;
32321;SDS011;61553;48.994;8.940;2023-09-18T07:10:44;9.23;;;2.33;;
32321;SDS011;61553;48.994;8.940;2023-09-18T07:13:10;14.18;;;3.65;;
32321;SDS011;61553;48.994;8.940;2023-09-18T07:15:36;13.85;;;2.97;;
32321;SDS011;61553;48.994;8.940;2023-09-18T07:18:02;8.32;;;2.65;;
32321;SDS011;61553;48.994;8.940;2023-09-18T07:20:28;11.20;;;2.53;;
32321;SDS011;61553;48.994;8.940;2023-09-18T07:22:56;6.20;;;2.80;;
32321;SDS011;61553;48.994;8.940;2023-09-18T07:25:21;10.43;;;2.90;;
32321;SDS011;61553;48.994;8.940;2023-09-18T07:27:47;9.25;;;3.17;;
32321;SDS011;61553;48.994;8.940;2023-09-18T07:30:13;7.50;;;2.75;;
32321;SDS011;61553;48.994;8.940;2023-09-18T07:32:44;10.30;;;3.05;;
32321;SDS011;61553;48.994;8.940;2023-09-18T07:35:11;9.38;;;2.80;;
32321;SDS011;61553;48.994;8.940;2023-09-18T07:37:38;6.07;;;2.90;;
32321;SDS011;61553;48.994;8.940;2023-09-18T07:40:05;7.63;;;2.78;;
32321;SDS011;61553;48.994;8.940;2023-09-18T07:42:31;12.90;;;4.05;;
32321;SDS011;61553;48.994;8.940;2023-09-18T07:44:57;7.90;;;3.30;;
32321;SDS011;61553;48.994;8.940;2023-09-18T07:47:23;9.30;;;2.63;;
32321;SDS011;61553;48.994;8.940;2023-09-18T07:49:48;7.03;;;3.45;;
32321;SDS011;61553;48.994;8.940;2023-09-18T07:52:15;8.90;;;3.10;;
32321;SDS011;61553;48.994;8.940;2023-09-18T07:54:41;7.20;;;2.40;;
32321;SDS011;61553;48.994;8.940;2023-09-18T07:57:08;10.60;;;2.28;;
32321;SDS011;61553;48.994;8.940;2023-09-18T07:59:34;7.72;;;2.42;;
32321;SDS011;61553;48.994;8.940;2023-09-18T08:02:01;7.40;;;2.10;;
32321;SDS011;61553;48.994;8.940;2023-09-18T08:04:27;9.63;;;2.20;;
32321;SDS011;61553;48.994;8.940;2023-09-18T08:06:55;6.60;;;1.83;;
32321;SDS011;61553;48.994;8.940;2023-09-18T08:09:21;6.28;;;2.00;;
32321;SDS011;61553;48.994;8.940;2023-09-18T08:11:47;5.15;;;1.60;;
32321;SDS011;61553;48.994;8.940;2023-09-18T08:14:14;5.55;;;1.55;;
32321;SDS011;61553;48.994;8.940;2023-09-18T08:16:40;10.27;;;2.00;;
32321;SDS011;61553;48.994;8.940;2023-09-18T08:19:06;11.85;;;2.25;;
32321;SDS011;61553;48.994;8.940;2023-09-18T08:21:32;6.22;;;1.67;;
32321;SDS011;61553;48.994;8.940;2023-09-18T08:23:58;7.85;;;2.22;;
32321;SDS011;61553;48.994;8.940;2023-09-18T08:26:24;7.75;;;1.90;;
32321;SDS011;61553;48.994;8.940;2023-09-18T08:28:52;6.45;;;2.08;;
32321;SDS011;61553;48.994;8.940;2023-09-18T08:31:18;7.18;;;1.98;;
32321;SDS011;61553;48.994;8.940;2023-09-18T08:33:43;8.48;;;2.08;;
32321;SDS011;61553;48.994;8.940;2023-09-18T08:36:09;6.82;;;1.65;;
32321;SDS011;61553;48.994;8.940;2023-09-18T08:38:35;8.43;;;1.92;;
32321;SDS011;61553;48.994;8.940;2023-09-18T08:41:00;4.32;;;1.50;;
32321;SDS011;61553;48.994;8.940;2023-09-18T08:43:26;5.10;;;1.67;;
32321;SDS011;61553;48.994;8.940;2023-09-18T08:45:54;5.60;;;1.60;;
32321;SDS011;61553;48.994;8.940;2023-09-18T08:48:26;7.97;;;1.70;;
32321;SDS011;61553;48.994;8.940;2023-09-18T08:50:59;6.03;;;1.67;;
32321;SDS011;61553;48.994;8.940;2023-09-18T08:53:33;4.40;;;1.38;;
32321;SDS011;61553;48.994;8.940;2023-09-18T08:56:00;5.35;;;1.35;;
32321;SDS011;61553;48.994;8.940;2023-09-18T08:58:34;10.00;;;2.30;;
32321;SDS011;61553;48.994;8.940;2023-09-18T09:01:03;3.90;;;1.60;;
32321;SDS011;61553;48.994;8.940;2023-09-18T09:03:31;10.73;;;2.33;;
32321;SDS011;61553;48.994;8.940;2023-09-18T09:05:59;8.35;;;1.92;;
32321;SDS011;61553;48.994;8.940;2023-09-18T09:08:27;6.35;;;1.90;;
32321;SDS011;61553;48.994;8.940;2023-09-18T09:10:53;8.05;;;2.20;;
32321;SDS011;61553;48.994;8.940;2023-09-18T09:13:19;7.70;;;1.98;;
32321;SDS011;61553;48.994;8.940;2023-09-18T09:15:50;23.25;;;3.92;;
32321;SDS011;61553;48.994;8.940;2023-09-18T09:18:19;9.13;;;2.35;;
32321;SDS011;61553;48.994;8.940;2023-09-18T09:20:54;8.57;;;2.17;;
32321;SDS011;61553;48.994;8.940;2023-09-18T09:23:29;8.20;;;2.20;;
32321;SDS011;61553;48.994;8.940;2023-09-18T09:26:14;9.70;;;1.90;;
32321;SDS011;61553;48.994;8.940;2023-09-18T09:28:42;6.97;;;1.60;;
32321;SDS011;61553;48.994;8.940;2023-09-18T09:31:08;7.15;;;2.13;;
32321;SDS011;61553;48.994;8.940;2023-09-18T09:33:35;6.80;;;1.95;;
32321;SDS011;61553;48.994;8.940;2023-09-18T09:36:06;3.92;;;0.95;;
32321;SDS011;61553;48.994;8.940;2023-09-18T09:38:33;5.05;;;1.20;;
32321;SDS011;61553;48.994;8.940;2023-09-18T09:41:03;6.40;;;1.20;;
32321;SDS011;61553;48.994;8.940;2023-09-18T09:43:34;5.38;;;1.30;;
32321;SDS011;61553;48.994;8.940;2023-09-18T09:46:00;8.43;;;1.27;;
32321;SDS011;61553;48.994;8.940;2023-09-18T09:48:26;3.70;;;1.33;;
32321;SDS011;61553;48.994;8.940;2023-09-18T09:50:57;9.25;;;1.50;;
32321;SDS011;61553;48.994;8.940;2023-09-18T09:53:43;4.00;;;2.08;;
32321;SDS011;61553;48.994;8.940;2023-09-18T09:56:12;6.15;;;1.50;;
32321;SDS011;61553;48.994;8.940;2023-09-18T09:58:38;5.22;;;1.30;;
32321;SDS011;61553;48.994;8.940;2023-09-18T10:01:08;5.13;;;1.63;;
32321;SDS011;61553;48.994;8.940;2023-09-18T10:03:38;4.63;;;1.23;;
32321;SDS011;61553;48.994;8.940;2023-09-18T10:06:05;6.25;;;1.45;;
32321;SDS011;61553;48.994;8.940;2023-09-18T10:08:31;2.80;;;1.10;;
32321;SDS011;61553;48.994;8.940;2023-09-18T10:11:04;5.72;;;1.30;;
32321;SDS011;61553;48.994;8.940;2023-09-18T10:13:47;6.70;;;2.40;;
32321;SDS011;61553;48.994;8.940;2023-09-18T10:16:22;5.13;;;1.25;;
32321;SDS011;61553;48.994;8.940;2023-09-18T10:22:13;4.55;;;1.23;;
32321;SDS011;61553;48.994;8.940;2023-09-18T10:24:36;5.95;;;1.52;;
32321;SDS011;61553;48.994;8.940;2023-09-18T10:27:03;4.03;;;1.20;;
32321;SDS011;61553;48.994;8.940;2023-09-18T10:29:32;4.20;;;1.30;;
32321;SDS011;61553;48.994;8.940;2023-09-18T10:31:59;5.57;;;1.30;;
32321;SDS011;61553;48.994;8.940;2023-09-18T10:34:29;5.93;;;1.30;;
32321;SDS011;61553;48.994;8.940;2023-09-18T10:36:58;4.03;;;1.38;;
32321;SDS011;61553;48.994;8.940;2023-09-18T10:39:26;5.25;;;1.35;;
32321;SDS011;61553;48.994;8.940;2023-09-18T10:41:54;4.22;;;1.98;;
32321;SDS011;61553;48.994;8.940;2023-09-18T10:44:22;5.30;;;1.70;;
32321;SDS011;61553;48.994;8.940;2023-09-18T10:46:49;6.55;;;1.33;;
32321;SDS011;61553;48.994;8.940;2023-09-18T10:49:16;7.43;;;1.23;;
32321;SDS011;61553;48.994;8.940;2023-09-18T10:51:43;7.28;;;1.50;;
32321;SDS011;61553;48.994;8.940;2023-09-18T10:54:09;5.53;;;1.20;;
32321;SDS011;61553;48.994;8.940;2023-09-18T10:56:36;7.47;;;1.40;;
32321;SDS011;61553;48.994;8.940;2023-09-18T10:59:05;6.22;;;1.33;;
32321;SDS011;61553;48.994;8.940;2023-09-18T11:01:32;4.13;;;1.15;;
32321;SDS011;61553;48.994;8.940;2023-09-18T11:04:02;2.67;;;1.10;;
32321;SDS011;61553;48.994;8.940;2023-09-18T11:06:29;5.55;;;1.60;;
32321;SDS011;61553;48.994;8.940;2023-09-18T11:09:02;4.45;;;1.25;;
32321;SDS011;61553;48.994;8.940;2023-09-18T11:11:31;5.28;;;1.10;;
32321;SDS011;61553;48.994;8.940;2023-09-18T11:14:00;4.05;;;1.10;;
32321;SDS011;61553;48.994;8.940;2023-09-18T11:18:53;7.40;;;1.38;;
32321;SDS011;61553;48.994;8.940;2023-09-18T11:21:26;4.20;;;1.83;;
32321;SDS011;61553;48.994;8.940;2023-09-18T11:23:59;5.00;;;1.27;;
32321;SDS011;61553;48.994;8.940;2023-09-18T11:26:36;4.55;;;1.20;;
32321;SDS011;61553;48.994;8.940;2023-09-18T11:29:05;3.47;;;1.20;;
32321;SDS011;61553;48.994;8.940;2023-09-18T11:31:50;4.95;;;1.27;;
32321;SDS011;61553;48.994;8.940;2023-09-18T11:34:22;4.63;;;2.17;;
32321;SDS011;61553;48.994;8.940;2023-09-18T11:36:53;7.95;;;1.25;;
32321;SDS011;61553;48.994;8.940;2023-09-18T11:39:38;5.07;;;1.33;;
32321;SDS011;61553;48.994;8.940;2023-09-18T11:42:09;3.47;;;1.10;;
32321;SDS011;61553;48.994;8.940;2023-09-18T11:44:36;3.88;;;1.45;;
32321;SDS011;61553;48.994;8.940;2023-09-18T11:47:07;4.97;;;1.42;;
32321;SDS011;61553;48.994;8.940;2023-09-18T11:49:37;3.80;;;1.45;;
32321;SDS011;61553;48.994;8.940;2023-09-18T11:52:08;4.93;;;1.25;;
32321;SDS011;61553;48.994;8.940;2023-09-18T11:54:34;4.63;;;1.52;;
32321;SDS011;61553;48.994;8.940;2023-09-18T11:57:03;6.45;;;1.38;;
32321;SDS011;61553;48.994;8.940;2023-09-18T11:59:38;4.70;;;1.02;;
32321;SDS011;61553;48.994;8.940;2023-09-18T12:02:07;5.22;;;1.30;;
32321;SDS011;61553;48.994;8.940;2023-09-18T12:04:33;7.00;;;1.60;;
32321;SDS011;61553;48.994;8.940;2023-09-18T12:06:59;3.88;;;1.20;;
32321;SDS011;61553;48.994;8.940;2023-09-18T12:09:26;2.85;;;0.95;;
32321;SDS011;61553;48.994;8.940;2023-09-18T12:11:52;3.65;;;1.00;;
32321;SDS011;61553;48.994;8.940;2023-09-18T12:14:22;5.40;;;1.73;;
32321;SDS011;61553;48.994;8.940;2023-09-18T12:16:48;3.88;;;1.08;;
32321;SDS011;61553;48.994;8.940;2023-09-18T12:19:18;4.75;;;1.05;;
32321;SDS011;61553;48.994;8.940;2023-09-18T12:21:47;4.88;;;1.30;;
32321;SDS011;61553;48.994;8.940;2023-09-18T12:24:23;6.93;;;1.65;;
32321;SDS011;61553;48.994;8.940;2023-09-18T12:26:50;3.30;;;0.95;;
32321;SDS011;61553;48.994;8.940;2023-09-18T12:29:17;2.53;;;1.17;;
32321;SDS011;61553;48.994;8.940;2023-09-18T12:31:42;4.47;;;1.75;;
32321;SDS011;61553;48.994;8.940;2023-09-18T12:34:13;6.00;;;1.50;;
32321;SDS011;61553;48.994;8.940;2023-09-18T12:36:43;5.95;;;1.20;;
32321;SDS011;61553;48.994;8.940;2023-09-18T12:39:12;4.95;;;1.13;;
32321;SDS011;61553;48.994;8.940;2023-09-18T12:41:41;5.38;;;1.27;;
32321;SDS011;61553;48.994;8.940;2023-09-18T12:44:11;4.57;;;1.15;;
32321;SDS011;61553;48.994;8.940;2023-09-18T12:46:37;5.95;;;1.40;;
32321;SDS011;61553;48.994;8.940;2023-09-18T12:51:42;4.60;;;1.50;;
32321;SDS011;61553;48.994;8.940;2023-09-18T12:54:09;5.50;;;1.25;;
32321;SDS011;61553;48.994;8.940;2023-09-18T12:56:42;5.68;;;1.20;;
32321;SDS011;61553;48.994;8.940;2023-09-18T12:59:08;5.22;;;1.65;;
32321;SDS011;61553;48.994;8.940;2023-09-18T13:01:35;3.10;;;1.20;;
32321;SDS011;61553;48.994;8.940;2023-09-18T13:04:03;4.72;;;1.17;;
32321;SDS011;61553;48.994;8.940;2023-09-18T13:06:30;2.78;;;1.08;;
32321;SDS011;61553;48.994;8.940;2023-09-18T13:08:56;4.78;;;1.45;;
32321;SDS011;61553;48.994;8.940;2023-09-18T13:11:53;5.43;;;1.40;;
32321;SDS011;61553;48.994;8.940;2023-09-18T13:14:22;7.28;;;1.20;;
32321;SDS011;61553;48.994;8.940;2023-09-18T13:16:48;3.50;;;1.20;;
32321;SDS011;61553;48.994;8.940;2023-09-18T13:19:14;4.57;;;1.50;;
32321;SDS011;61553;48.994;8.940;2023-09-18T13:21:46;6.82;;;1.73;;
32321;SDS011;61553;48.994;8.940;2023-09-18T13:24:29;5.88;;;1.40;;
32321;SDS011;61553;48.994;8.940;2023-09-18T13:29:23;5.80;;;1.55;;
32321;SDS011;61553;48.994;8.940;2023-09-18T13:31:49;3.38;;;1.25;;
32321;SDS011;61553;48.994;8.940;2023-09-18T13:34:15;4.57;;;1.35;;
32321;SDS011;61553;48.994;8.940;2023-09-18T13:36:52;5.93;;;1.40;;
32321;SDS011;61553;48.994;8.940;2023-09-18T13:39:18;6.95;;;1.20;;
32321;SDS011;61553;48.994;8.940;2023-09-18T13:41:43;7.07;;;1.23;;
32321;SDS011;61553;48.994;8.940;2023-09-18T13:44:09;6.78;;;1.70;;
32321;SDS011;61553;48.994;8.940;2023-09-18T13:46:35;6.68;;;1.40;;
32321;SDS011;61553;48.994;8.940;2023-09-18T13:49:05;4.22;;;1.27;;
32321;SDS011;61553;48.994;8.940;2023-09-18T13:51:31;9.32;;;1.42;;
32321;SDS011;61553;48.994;8.940;2023-09-18T13:53:58;6.57;;;1.30;;
32321;SDS011;61553;48.994;8.940;2023-09-18T13:56:23;4.22;;;1.33;;
32321;SDS011;61553;48.994;8.940;2023-09-18T13:58:53;4.65;;;1.17;;
32321;SDS011;61553;48.994;8.940;2023-09-18T14:01:20;3.08;;;0.98;;
32321;SDS011;61553;48.994;8.940;2023-09-18T14:03:47;2.85;;;1.10;;
32321;SDS011;61553;48.994;8.940;2023-09-18T14:06:12;4.20;;;1.00;;
32321;SDS011;61553;48.994;8.940;2023-09-18T14:08:38;3.92;;;1.52;;
32321;SDS011;61553;48.994;8.940;2023-09-18T14:11:05;4.88;;;1.38;;
32321;SDS011;61553;48.994;8.940;2023-09-18T14:13:31;5.20;;;1.33;;
32321;SDS011;61553;48.994;8.940;2023-09-18T14:15:57;4.40;;;1.58;;
32321;SDS011;61553;48.994;8.940;2023-09-18T14:18:24;5.38;;;1.52;;
32321;SDS011;61553;48.994;8.940;2023-09-18T14:20:50;4.13;;;1.40;;
32321;SDS011;61553;48.994;8.940;2023-09-18T14:23:15;3.22;;;1.15;;
32321;SDS011;61553;48.994;8.940;2023-09-18T14:25:41;3.97;;;1.10;;
32321;SDS011;61553;48.994;8.940;2023-09-18T14:28:07;3.95;;;1.10;;
32321;SDS011;61553;48.994;8.940;2023-09-18T14:30:33;3.67;;;1.38;;
32321;SDS011;61553;48.994;8.940;2023-09-18T14:32:58;5.55;;;1.40;;
32321;SDS011;61553;48.994;8.940;2023-09-18T14:35:26;5.03;;;1.35;;
32321;SDS011;61553;48.994;8.940;2023-09-18T14:37:52;4.55;;;1.25;;
32321;SDS011;61553;48.994;8.940;2023-09-18T14:40:18;4.00;;;1.00;;
32321;SDS011;61553;48.994;8.940;2023-09-18T14:42:46;5.05;;;1.13;;
32321;SDS011;61553;48.994;8.940;2023-09-18T14:45:11;3.53;;;1.25;;
32321;SDS011;61553;48.994;8.940;2023-09-18T14:47:37;2.88;;;1.02;;
32321;SDS011;61553;48.994;8.940;2023-09-18T14:50:03;4.32;;;1.23;;
32321;SDS011;61553;48.994;8.940;2023-09-18T14:52:30;4.82;;;1.65;;
32321;SDS011;61553;48.994;8.940;2023-09-18T14:54:57;2.38;;;0.98;;
32321;SDS011;61553;48.994;8.940;2023-09-18T14:57:24;4.43;;;1.23;;
32321;SDS011;61553;48.994;8.940;2023-09-18T14:59:51;3.97;;;1.08;;